Terminal Aerodrome Forecast
Issued by NWS

Home | Current Version | Previous Version | Text Only | Print | Product List | Glossary On
Versions: 1 2 3 4 5 6 7 8 9 10 11 12 13 14 15 16 17 18 19
000
FTUS46 KSEW 011700
TAFCLM
TAF
KCLM 011730Z 0118/0218 VRB03KT P6SM -RA OVC007
     FM020000 27007KT P6SM BKN020 OVC040
     FM021000 VRB03KT P6SM OVC015=

USA.gov is the U.S. government's official web portal to all federal, state and local government web resources and services.